Flight Track Log - Related Links

Times and Time Zones

All times are in EDT time to prevent confusion due to time zone crossing. See the SWA2153 flight status page for this flight to view local times or setup timezone preferences in your user account.

Time Position Orientation Groundspeed Altitude Reporting Facility
EDT Latitude Longitude Course Direction KTS MPH feet Rate Location/Type
Mon 03:33:54 PM 40.5067 -80.3511 270° West 208 239 4,300  Level Cleveland Center
Mon 03:34:54 PM 40.5069 -80.4492 270° West 266 306 7,000 3,100 Climbing Cleveland Center
Mon 03:35:54 PM 40.5028 -80.5394 267° West 272 313 10,500 2,900 Climbing Cleveland Center
Mon 03:36:54 PM 40.5008 -80.6542 269° West 287 330 12,800 2,650 Climbing Cleveland Center
Mon 03:37:54 PM 40.4986 -80.7769 269° West 318 366 15,800 2,750 Climbing Cleveland Center
Mon 03:38:54 PM 40.4939 -80.9081 267° West 344 396 18,300 2,600 Climbing Cleveland Center
Mon 03:39:00 PM 40.4500 -81.4420 270° West  Level FlightAware Approximate
Mon 03:39:54 PM 40.4914 -81.0417 269° West 361 415 21,000  Level Cleveland Center
Mon 03:40:54 PM 40.4886 -81.1836 269° West 378 435 23,300 2,000 Climbing Cleveland Center
Mon 03:42:54 PM 40.4781 -81.4689 267° West 405 466 27,000 1,558 Climbing Indianapolis Center
Mon 03:43:55 PM 40.4717 -81.6528 267° West 424 488 28,000 488 Climbing Indianapolis Center
Mon 03:44:57 PM 40.4683 -81.8114 268° West 429 494 28,000 435 Level Indianapolis Center
Mon 03:45:59 PM 40.4622 -81.9717 267° West 433 498 28,900 1,113 Climbing Indianapolis Center
Mon 03:47:01 PM 40.4575 -82.1350 268° West 441 507 30,300 1,452 Climbing Indianapolis Center
Mon 03:48:03 PM 40.4436 -82.2997 264° West 449 517 31,900 1,306 Climbing Indianapolis Center
Mon 03:49:05 PM 40.4303 -82.4692 264° West 459 528 33,000 1,258 Climbing Indianapolis Center
Mon 03:50:07 PM 40.4158 -82.6414 264° West 467 537 34,500 1,645 Climbing Indianapolis Center
Mon 03:51:09 PM 40.4003 -82.8247 264° West 466 536 36,400 1,548 Climbing Indianapolis Center
Mon 03:52:11 PM 40.3858 -82.9881 263° West 457 526 37,700 1,258 Climbing Indianapolis Center
Mon 03:53:13 PM 40.3717 -83.1528 264° West 457 526 39,000 1,113 Climbing Indianapolis Center
Mon 03:54:15 PM 40.3569 -83.3128 263° West 448 516 40,000 488 Climbing Indianapolis Center
Mon 03:55:16 PM 40.3397 -83.5031 263° West 443 510 40,000  Level Indianapolis Center
Mon 03:56:18 PM 40.3253 -83.6622 263° West 443 510 40,000  Level Indianapolis Center
Mon 03:57:20 PM 40.3103 -83.8211 263° West 443 510 40,000  Level Indianapolis Center
Mon 03:58:22 PM 40.2878 -83.9783 259° West 443 510 40,000  Level Indianapolis Center
Mon 03:59:24 PM 40.2569 -84.1344 256° West 444 511 40,000  Level Indianapolis Center
Mon 04:00:26 PM 40.2278 -84.2897 256° West 443 510 40,000  Level Indianapolis Center
Mon 04:01:28 PM 40.1917 -84.4750 256° West 440 506 40,000  Level Indianapolis Center
Mon 04:02:30 PM 40.1611 -84.6314 256° West 445 512 40,000  Level Indianapolis Center
Mon 04:03:32 PM 40.1311 -84.7856 256° West 441 507 40,000  Level Indianapolis Center
Mon 04:04:34 PM 40.0989 -84.9494 256° West 445 512 40,000  Level Indianapolis Center
Mon 04:05:36 PM 40.0681 -85.1056 256° West 446 513 40,000  Level Indianapolis Center
Mon 04:06:38 PM 40.0369 -85.2617 255° West 446 513 40,000  Level Indianapolis Center
Mon 04:07:40 PM 40.0061 -85.4164 255° West 444 511 40,000  Level Indianapolis Center
Mon 04:08:42 PM 39.9689 -85.6022 255° West 443 510 40,000  Level Indianapolis Center
Mon 04:09:44 PM 39.9369 -85.7561 255° West 442 509 40,000  Level Indianapolis Center
Mon 04:10:46 PM 39.9067 -85.9092 256° West 439 505 40,000  Level Indianapolis Center
Mon 04:11:48 PM 39.8756 -86.0619 255° West 441 507 40,000  Level Indianapolis Center
Mon 04:12:50 PM 39.8453 -86.2128 255° West 438 504 40,000  Level Indianapolis Center
Mon 04:13:52 PM 39.8064 -86.3869 254° West 448 516 40,000  Level Indianapolis Center
Mon 04:14:54 PM 39.7733 -86.5483 255° West 450 518 40,000  Level Indianapolis Center
Mon 04:15:56 PM 39.7406 -86.7017 255° West 447 514 40,000  Level Indianapolis Center
Mon 04:16:58 PM 39.7072 -86.8558 254° West 447 514 40,000  Level Indianapolis Center
Mon 04:18:00 PM 39.6667 -87.0422 254° West 449 517 40,000  Level Indianapolis Center
Mon 04:19:02 PM 39.6333 -87.1975 254° West 449 517 40,000  Level Indianapolis Center
Mon 04:20:04 PM 39.5994 -87.3517 254° West 448 516 40,000  Level Indianapolis Center
Mon 04:21:06 PM 39.5653 -87.5067 254° West 449 517 40,000  Level Indianapolis Center
Mon 04:22:08 PM 39.5297 -87.6611 253° West 449 517 40,000  Level Indianapolis Center
Mon 04:23:10 PM 39.4950 -87.8158 254° West 449 517 40,000  Level Indianapolis Center
Mon 04:24:12 PM 39.4539 -88.0000 254° West 447 514 40,000  Level Indianapolis Center
Mon 04:25:14 PM 39.4186 -88.1556 254° West 451 519 40,000  Level Indianapolis Center
Mon 04:26:22 PM 39.3822 -88.3131 253° West 448 516 40,000  Level Kansas City Center
Mon 04:27:26 PM 39.3436 -88.4703 252° West 453 521 40,000  Level Kansas City Center
Mon 04:28:26 PM 39.3058 -88.6347 254° West 453 521 40,000  Level Kansas City Center
Mon 04:29:28 PM 39.2703 -88.7906 254° West 454 522 40,000  Level Kansas City Center
Mon 04:30:30 PM 39.2264 -88.9789 253° West 457 526 40,000  Level Kansas City Center
Mon 04:31:34 PM 39.1892 -89.1372 253° West 463 533 40,000  Level Kansas City Center
Mon 04:32:34 PM 39.1506 -89.3028 253° West 458 527 40,000  Level Kansas City Center
Mon 04:33:38 PM 39.1111 -89.4725 253° West 462 532 40,000  Level Kansas City Center
Mon 04:34:38 PM 39.0597 -89.6231 246° West 466 536 40,000  Level Kansas City Center
Mon 04:35:42 PM 38.9664 -89.7542 228° Southwest 464 534 40,000  Level Kansas City Center
Mon 04:36:43 PM 38.8769 -89.8717 226° Southwest 464 534 40,000  Level Kansas City Center
Mon 04:37:44 PM 38.7878 -89.9903 226° Southwest 462 532 40,000  Level Kansas City Center
Mon 04:38:47 PM 38.7022 -90.1050 226° Southwest 460 529 40,000  Level Kansas City Center
Mon 04:39:49 PM 38.6047 -90.2286 225° Southwest 465 535 40,000  Level Kansas City Center
Mon 04:40:52 PM 38.5022 -90.3675 227° Southwest 468 539 40,000  Level Kansas City Center
Mon 04:41:53 PM 38.4147 -90.4861 227° Southwest 460 529 40,000  Level Kansas City Center
Mon 04:42:56 PM 38.3367 -90.5903 226° Southwest 457 526 40,000  Level Kansas City Center
Mon 04:43:58 PM 38.2467 -90.7078 226° Southwest 460 529 40,000  Level Kansas City Center
Mon 04:44:58 PM 38.1397 -90.8486 226° Southwest 462 532 40,000  Level Kansas City Center
Mon 04:46:02 PM 38.0514 -90.9658 226° Southwest 459 528 40,000  Level Kansas City Center
Mon 04:47:02 PM 37.9683 -91.0719 225° Southwest 459 528 40,000  Level Kansas City Center
Mon 04:48:06 PM 37.8617 -91.2128 226° Southwest 459 528 40,000  Level Kansas City Center
Mon 04:49:06 PM 37.7725 -91.3281 226° Southwest 457 526 40,000  Level Kansas City Center
Mon 04:50:10 PM 37.6833 -91.4431 226° Southwest 455 524 40,000  Level Kansas City Center
Mon 04:51:11 PM 37.5925 -91.5586 225° Southwest 458 527 40,000  Level Kansas City Center
Mon 04:52:14 PM 37.5044 -91.6739 226° Southwest 455 524 40,000  Level Kansas City Center
Mon 04:53:14 PM 37.4156 -91.7875 225° Southwest 453 521 40,000  Level Kansas City Center
Mon 04:54:19 PM 37.3256 -91.9028 226° Southwest 456 525 40,000  Level Kansas City Center
Mon 04:55:20 PM 37.2364 -92.0169 226° Southwest 456 525 40,000  Level Kansas City Center
Mon 04:56:21 PM 37.1275 -92.1553 225° Southwest 459 528 40,000  Level Kansas City Center
Mon 04:57:25 PM 37.0372 -92.2706 226° Southwest 461 531 40,000  Level Kansas City Center
Mon 04:58:27 PM 36.9469 -92.3836 225° Southwest 459 528 40,000  Level Kansas City Center
Mon 04:59:27 PM 36.8556 -92.4950 224° Southwest 457 526 40,000  Level Kansas City Center
Mon 05:00:31 PM 36.7650 -92.6081 225° Southwest 457 526 40,000 -48 Level Kansas City Center
Mon 05:01:31 PM 36.6750 -92.7178 224° Southwest 453 521 39,900  Descending Kansas City Center
Mon 05:02:05 PM 36.6228 -92.7872 227° Southwest 465 535 40,000 64 Climbing Memphis Center
Mon 05:03:05 PM 36.5353 -92.8956 225° Southwest 459 528 40,000  Level Memphis Center
Mon 05:03:36 PM 36.4911 -92.9400 219° Southwest 449 517 40,000  Level Kansas City Center
Mon 05:04:37 PM 36.4025 -93.0486 225° Southwest 449 517 40,000  Level Kansas City Center
Mon 05:05:41 PM 36.2958 -93.1817 225° Southwest 453 521 40,000  Level Kansas City Center
Mon 05:06:42 PM 36.2058 -93.2906 224° Southwest 456 525 40,000  Level Kansas City Center
Mon 05:07:45 PM 36.1183 -93.3992 225° Southwest 451 519 40,000  Level Kansas City Center
Mon 05:08:47 PM 36.0286 -93.5075 224° Southwest 452 520 40,000  Level Kansas City Center
Mon 05:10:05 PM 35.8958 -93.6678 224° Southwest 452 520 40,000  Level Memphis Center
Mon 05:11:05 PM 35.8011 -93.7792 224° Southwest 458 527 40,000  Level Memphis Center
Mon 05:12:05 PM 35.7125 -93.8878 225° Southwest 458 527 40,000  Level Memphis Center
Mon 05:13:05 PM 35.6197 -93.9964 224° Southwest 458 527 40,000  Level Memphis Center
Mon 05:14:05 PM 35.5397 -94.0950 225° Southwest 458 527 40,000  Level Memphis Center
Mon 05:15:05 PM 35.4447 -94.2003 222° Southwest 458 527 40,000  Level Memphis Center
Mon 05:16:05 PM 35.3558 -94.3056 224° Southwest 458 527 40,000  Level Memphis Center
Mon 05:18:34 PM 35.1217 -94.5631 222° Southwest 461 531 40,000  Level Fort Worth Center
Mon 05:19:34 PM 35.0278 -94.6650 222° Southwest 461 531 40,000  Level Fort Worth Center
Mon 05:20:34 PM 34.9342 -94.7669 222° Southwest 456 525 40,000  Level Fort Worth Center
Mon 05:21:34 PM 34.8361 -94.8761 222° Southwest 456 525 40,000  Level Fort Worth Center
Mon 05:22:34 PM 34.7464 -94.9697 221° Southwest 456 525 40,000  Level Fort Worth Center
Mon 05:23:34 PM 34.6522 -95.0711 222° Southwest 441 507 40,000  Level Fort Worth Center
Mon 05:24:34 PM 34.5603 -95.1667 221° Southwest 455 524 40,000  Level Fort Worth Center
Mon 05:25:34 PM 34.4681 -95.2675 222° Southwest 455 524 40,000  Level Fort Worth Center
Mon 05:26:34 PM 34.3736 -95.3653 221° Southwest 455 524 40,000  Level Fort Worth Center
Mon 05:27:34 PM 34.2792 -95.4631 221° Southwest 455 524 40,000  Level Fort Worth Center
Mon 05:28:34 PM 34.1869 -95.5631 222° Southwest 455 524 40,000  Level Fort Worth Center
Mon 05:29:34 PM 34.0964 -95.6503 219° Southwest 455 524 40,000  Level Fort Worth Center
Mon 05:30:34 PM 34.0058 -95.7472 222° Southwest 449 517 40,000  Level Fort Worth Center
Mon 05:31:34 PM 33.9131 -95.8442 221° Southwest 449 517 40,000  Level Fort Worth Center
Mon 05:32:34 PM 33.8081 -95.9536 221° Southwest 455 524 40,000  Level Fort Worth Center
Mon 05:33:34 PM 33.7256 -96.0422 222° Southwest 455 524 40,000  Level Fort Worth Center
Mon 05:34:34 PM 33.6244 -96.1486 221° Southwest 455 524 40,000  Level Fort Worth Center
Mon 05:35:34 PM 33.5294 -96.2447 220° Southwest 455 524 40,000  Level Fort Worth Center
Mon 05:36:34 PM 33.4444 -96.3306 220° Southwest 455 524 40,000  Level Fort Worth Center
Mon 05:37:34 PM 33.3494 -96.4286 221° Southwest 455 524 40,000  Level Fort Worth Center
Mon 05:38:34 PM 33.2222 -96.4747 197° South 432 497 40,000  Level Fort Worth Center
Mon 05:39:34 PM 33.0972 -96.4908 186° South 437 503 40,000  Level Fort Worth Center
Mon 05:40:34 PM 32.9719 -96.5072 186° South 448 516 40,000  Level Fort Worth Center
Mon 05:41:34 PM 32.8511 -96.5233 186° South 453 521 40,000  Level Fort Worth Center
Mon 05:42:34 PM 32.7261 -96.5417 187° South 453 521 40,000  Level Fort Worth Center
Mon 05:43:34 PM 32.6008 -96.5603 187° South 453 521 40,000  Level Fort Worth Center
Mon 05:44:34 PM 32.4800 -96.5761 186° South 447 514 40,000  Level Fort Worth Center
Mon 05:45:34 PM 32.3547 -96.5944 187° South 447 514 40,000  Level Fort Worth Center
Mon 05:46:34 PM 32.2317 -96.6128 187° South 447 514 40,000  Level Fort Worth Center
Mon 05:47:34 PM 32.1086 -96.6311 187° South 447 514 40,000  Level Fort Worth Center
Mon 05:48:34 PM 31.9878 -96.6492 187° South 447 514 40,000  Level Fort Worth Center
Mon 05:49:34 PM 31.8708 -96.6625 186° South 428 493 40,000  Level Fort Worth Center
Mon 05:50:28 PM 31.7728 -96.6764 187° South 437 503 40,000  Level Houston Center
Mon 05:51:30 PM 31.6494 -96.6944 187° South 440 506 40,000 -49 Level Houston Center
Mon 05:52:31 PM 31.5286 -96.7061 185° South 434 499 39,900 -1,512 Descending Houston Center
Mon 05:53:33 PM 31.4044 -96.6617 163° South 457 526 36,900 -2,903 Descending Houston Center
Mon 05:54:35 PM 31.2597 -96.6228 167° South 456 525 33,900 -2,855 Descending Houston Center
Mon 05:55:37 PM 31.1347 -96.5989 171° South 449 517 31,000 -2,585 Descending Houston Center
Mon 05:56:38 PM 31.0108 -96.5831 174° South 443 510 28,600 -2,244 Descending Houston Center
Mon 05:57:40 PM 30.8911 -96.5694 174° South 432 497 26,400 -2,177 Descending Houston Center
Mon 05:58:42 PM 30.7778 -96.5564 174° South 409 471 24,100 -2,177 Descending Houston Center
Mon 05:59:44 PM 30.6803 -96.4983 153° Southeast 392 451 21,900 -2,098 Descending Houston Center
Mon 06:00:45 PM 30.5972 -96.4256 143° Southeast 375 432 19,800 -1,902 Descending Houston Center
Mon 06:01:47 PM 30.5081 -96.3667 150° Southeast 362 417 18,000 -1,982 Descending Houston Center
Mon 06:02:34 PM 30.4278 -96.3261 156° South 356 410 16,200 -2,235 Descending Houston Center
Mon 06:03:29 PM 30.3486 -96.2839 155° Southeast 349 402 14,200 -2,115 Descending Houston Center
Mon 06:04:36 PM 30.2519 -96.2319 155° Southeast 336 387 11,900 -1,500 Descending Houston Center
Mon 06:05:37 PM 30.1725 -96.1853 153° Southeast 319 367 11,000 -443 Descending Houston Center
Mon 06:06:38 PM 30.0997 -96.1211 143° Southeast 323 372 11,000  Level Houston Center
Mon 06:07:40 PM 30.0308 -96.0517 139° Southeast 320 368 11,000 -49 Level Houston Center
Mon 06:08:41 PM 29.9658 -95.9794 136° Southeast 319 367 10,900 -590 Descending Houston Center
Mon 06:09:42 PM 29.9075 -95.9117 135° Southeast 282 325 9,800 -1,525 Descending Houston Center
Mon 06:10:43 PM 29.8561 -95.8525 135° Southeast 264 304 7,800 -1,862 Descending Houston Center
Mon 06:11:38 PM 29.8072 -95.7956 135° Southeast 268 308 6,200 -836 Descending Houston Center
Mon 06:12:45 PM 29.7533 -95.7319 134° Southeast 228 262 6,100 -49 Descending Houston Center
Mon 06:13:40 PM 29.7133 -95.6861 135° Southeast 214 246 6,100 -51 Level Houston Center
Mon 06:14:42 PM 29.6814 -95.6322 124° Southeast 218 251 6,000 -885 Descending Houston Center
Mon 06:15:42 PM 29.6914 -95.5589 81° East 238 274 4,300 -1,533 Descending Houston Center
Mon 06:16:12 PM 29.6967 -95.5211 81° East 235 270 3,700 -984 Descending Houston Center
Mon 06:16:43 PM 29.7017 -95.4856 81° East 230 265 3,300 -968 Descending Houston Center
Mon 06:17:14 PM 29.7061 -95.4500 82° East 228 262 2,700 -774 Descending Houston Center
Mon 06:17:45 PM 29.7100 -95.4147 83° East 208 239 2,500 -581 Descending Houston Center
Mon 06:18:16 PM 29.7092 -95.3892 92° East 207 238 2,100 -774 Descending Houston Center
Mon 06:19:18 PM 29.6944 -95.3414 110° East 177 204 1,300 -732 Descending Houston Center
Mon 06:20:19 PM 29.6711 -95.3092 130° Southeast 150 173 600 -689 Descending Houston Center
Mon 06:23:00 PM 29.6454 -95.2789 115° Southeast  Level Estimated

Login

Don't have an account? Register now (free) for customized features, flight alerts, and more!